Time;durP1;ratioP1;P1;durP2;ratioP2;P2;SDS_P1;SDS_P2;PMS_P1;PMS_P2;Temp;Humidity;BMP_temperature;BMP_pressure;BME280_temperature;BME280_humidity;BME280_pressure;Samples;Min_cycle;Max_cycle;Signal;HPM_P1;HPM_P2
2022/05/29 00:00:37;;;;;;;10.73;3.20;;;10.30;99.90;;;;;;5038567;28;20091;-75
2022/05/29 00:03:02;;;;;;;11.20;4.10;;;10.30;99.90;;;;;;5053511;28;20441;-75
2022/05/29 00:05:28;;;;;;;14.67;3.97;;;10.30;99.90;;;;;;5055526;28;20049;-75
2022/05/29 00:07:54;;;;;;;14.60;4.30;;;10.30;99.90;;;;;;5053893;28;20056;-75
2022/05/29 00:10:21;;;;;;;16.70;3.80;;;10.30;99.90;;;;;;5032270;28;20065;-75
2022/05/29 00:12:47;;;;;;;18.30;3.90;;;10.30;99.90;;;;;;5054638;28;20059;-77
2022/05/29 00:15:13;;;;;;;12.87;4.00;;;10.30;99.90;;;;;;5052378;28;20480;-76
2022/05/29 00:17:39;;;;;;;15.03;4.20;;;10.30;99.90;;;;;;5046881;28;20045;-75
2022/05/29 00:20:06;;;;;;;18.93;4.10;;;10.30;99.90;;;;;;5037176;28;20120;-76
2022/05/29 00:22:33;;;;;;;17.47;3.30;;;10.30;99.90;;;;;;5038213;28;20064;-75
2022/05/29 00:24:59;;;;;;;19.73;4.10;;;10.30;99.90;;;;;;5036539;28;20045;-76
2022/05/29 00:27:26;;;;;;;18.17;4.37;;;10.30;99.90;;;;;;5037333;28;20049;-78
2022/05/29 00:29:52;;;;;;;15.97;4.03;;;10.30;99.90;;;;;;5028645;28;20045;-75
2022/05/29 00:32:17;;;;;;;17.00;3.40;;;10.30;99.90;;;;;;5021110;28;20068;-76
2022/05/29 00:34:43;;;;;;;13.67;3.67;;;10.30;99.90;;;;;;5037968;28;20045;-76
2022/05/29 00:37:10;;;;;;;17.67;3.60;;;10.20;99.90;;;;;;5048914;28;20049;-77
2022/05/29 00:39:36;;;;;;;13.20;4.23;;;10.20;99.90;;;;;;5053783;28;20067;-75
2022/05/29 00:42:04;;;;;;;14.53;3.63;;;10.20;99.90;;;;;;5020981;28;20045;-75
2022/05/29 00:44:32;;;;;;;12.97;3.87;;;10.10;99.90;;;;;;5029301;28;20402;-75
2022/05/29 00:47:00;;;;;;;18.17;4.13;;;10.10;99.90;;;;;;5044931;28;20496;-76
2022/05/29 00:49:28;;;;;;;16.07;5.03;;;10.10;99.90;;;;;;5046932;28;20041;-76
2022/05/29 00:51:58;;;;;;;15.43;3.77;;;10.10;99.90;;;;;;5036630;28;20033;-76
2022/05/29 00:54:24;;;;;;;18.73;5.07;;;10.10;99.90;;;;;;5030921;28;20043;-77
2022/05/29 00:56:52;;;;;;;16.27;4.53;;;10.10;99.90;;;;;;5052659;28;20419;-75
2022/05/29 00:59:21;;;;;;;14.00;4.57;;;10.10;99.90;;;;;;5036553;28;20037;-75
2022/05/29 01:01:49;;;;;;;15.93;4.10;;;10.10;99.90;;;;;;5052466;28;20043;-74
2022/05/29 01:04:15;;;;;;;20.20;4.73;;;10.10;99.90;;;;;;5054079;28;20052;-75
2022/05/29 01:06:41;;;;;;;15.23;4.00;;;10.00;99.90;;;;;;5036176;28;20060;-75
2022/05/29 01:09:08;;;;;;;20.27;4.60;;;10.00;99.90;;;;;;5010196;28;20048;-75
2022/05/29 01:11:51;;;;;;;15.00;4.03;;;10.00;99.90;;;;;;5051863;28;20076;-75
2022/05/29 01:14:25;;;;;;;18.40;4.80;;;9.90;99.90;;;;;;5054285;28;20045;-75
2022/05/29 01:17:05;;;;;;;20.57;4.87;;;9.90;99.90;;;;;;5036301;28;20053;-71
2022/05/29 01:19:57;;;;;;;17.93;5.13;;;9.90;99.90;;;;;;5044681;28;20072;-72
2022/05/29 01:22:44;;;;;;;15.77;4.67;;;9.90;99.90;;;;;;5060481;28;20041;-72
2022/05/29 01:25:35;;;;;;;14.60;4.63;;;9.90;99.90;;;;;;5051179;28;20052;-72
2022/05/29 01:28:12;;;;;;;17.93;4.97;;;9.90;99.90;;;;;;5034268;28;20044;-73
2022/05/29 01:30:45;;;;;;;22.93;5.27;;;9.90;99.90;;;;;;5042404;28;20407;-72
2022/05/29 01:33:22;;;;;;;16.00;4.70;;;9.90;99.90;;;;;;5049206;28;20083;-72
2022/05/29 01:35:54;;;;;;;19.80;5.07;;;9.80;99.90;;;;;;5046139;28;20097;-72
2022/05/29 01:38:25;;;;;;;17.90;4.67;;;9.80;99.90;;;;;;5048735;28;20110;-72
2022/05/29 01:40:57;;;;;;;14.70;4.20;;;9.90;99.90;;;;;;5029642;28;20045;-72
2022/05/29 01:43:30;;;;;;;20.00;4.80;;;9.90;99.90;;;;;;5043344;28;20048;-73
2022/05/29 01:46:01;;;;;;;22.45;4.25;;;9.90;99.90;;;;;;5049070;28;20144;-72
2022/05/29 01:48:40;;;;;;;19.37;4.37;;;9.80;99.90;;;;;;5049797;28;20036;-72
2022/05/29 01:51:12;;;;;;;19.87;5.00;;;9.90;99.90;;;;;;5032719;28;20093;-72
2022/05/29 01:53:42;;;;;;;18.40;4.70;;;9.90;99.90;;;;;;5043275;28;20112;-72
2022/05/29 01:56:15;;;;;;;19.17;4.80;;;9.90;99.90;;;;;;5033417;28;20079;-73
2022/05/29 01:58:45;;;;;;;17.00;4.32;;;9.90;99.90;;;;;;5042096;28;20318;-72
2022/05/29 02:01:12;;;;;;;17.23;4.83;;;9.90;99.90;;;;;;5050557;28;20048;-72
2022/05/29 02:03:43;;;;;;;19.70;4.67;;;9.90;99.90;;;;;;5024412;28;20094;-72
2022/05/29 02:06:13;;;;;;;18.87;5.17;;;9.90;99.90;;;;;;5049787;28;20047;-72
2022/05/29 02:08:45;;;;;;;21.57;5.07;;;9.90;99.90;;;;;;5031730;28;20083;-72
2022/05/29 02:11:16;;;;;;;19.10;4.20;;;9.90;99.90;;;;;;5034800;28;20558;-72
2022/05/29 02:13:48;;;;;;;24.23;5.43;;;9.90;99.90;;;;;;5033817;28;20074;-73
2022/05/29 02:16:17;;;;;;;15.37;4.73;;;9.90;99.90;;;;;;5032674;28;20053;-72
2022/05/29 02:18:49;;;;;;;14.73;4.30;;;9.90;99.90;;;;;;5031413;28;20482;-72
2022/05/29 02:21:21;;;;;;;19.67;4.97;;;9.90;99.90;;;;;;5065872;28;20067;-73
2022/05/29 02:23:51;;;;;;;17.23;5.00;;;9.90;99.90;;;;;;5050536;28;20056;-73
2022/05/29 02:26:21;;;;;;;14.00;4.50;;;9.90;99.90;;;;;;5030158;28;20069;-72
2022/05/29 02:28:52;;;;;;;13.97;4.10;;;9.90;99.90;;;;;;5031116;28;20071;-73
2022/05/29 02:31:29;;;;;;;17.57;4.67;;;9.90;99.90;;;;;;5044466;28;20084;-71
2022/05/29 02:33:59;;;;;;;22.27;4.33;;;10.00;99.90;;;;;;5047532;28;20056;-72
2022/05/29 02:36:34;;;;;;;17.97;3.93;;;9.90;99.90;;;;;;5045136;28;20029;-72
2022/05/29 02:39:20;;;;;;;18.40;4.73;;;9.90;99.90;;;;;;5028555;28;20067;-72
2022/05/29 02:41:56;;;;;;;23.83;5.57;;;9.90;99.90;;;;;;5050394;28;20041;-73
2022/05/29 02:44:37;;;;;;;17.03;4.57;;;9.90;99.90;;;;;;5049359;28;20530;-72
2022/05/29 02:47:14;;;;;;;19.37;5.30;;;9.90;99.90;;;;;;5049397;28;20072;-72
2022/05/29 02:49:49;;;;;;;19.10;5.13;;;9.90;99.90;;;;;;5047951;28;20033;-73
2022/05/29 02:52:17;;;;;;;15.50;4.00;;;9.90;99.90;;;;;;5046188;28;20048;-72
2022/05/29 02:54:44;;;;;;;22.77;4.27;;;9.90;99.90;;;;;;5061650;28;20125;-73
2022/05/29 02:57:10;;;;;;;15.43;4.10;;;9.90;99.90;;;;;;5034084;28;20514;-72
2022/05/29 02:59:42;;;;;;;19.33;4.77;;;9.90;99.90;;;;;;5020743;28;20517;-73
2022/05/29 03:02:15;;;;;;;15.03;3.83;;;9.90;99.90;;;;;;5052163;28;20067;-73
2022/05/29 03:04:53;;;;;;;21.87;4.30;;;9.90;99.90;;;;;;5054070;28;20051;-72
2022/05/29 03:07:31;;;;;;;15.80;5.10;;;9.90;99.90;;;;;;5051695;28;20040;-73
2022/05/29 03:10:09;;;;;;;20.67;5.23;;;9.90;99.90;;;;;;5044984;28;20140;-73
2022/05/29 03:12:49;;;;;;;15.20;4.30;;;9.90;99.90;;;;;;5036127;28;20045;-72
2022/05/29 03:15:25;;;;;;;13.07;4.57;;;9.80;99.90;;;;;;5053741;28;20052;-72
2022/05/29 03:18:03;;;;;;;18.20;4.83;;;9.80;99.90;;;;;;5046200;28;20056;-73
2022/05/29 03:20:40;;;;;;;18.57;4.50;;;9.80;99.90;;;;;;5047344;28;20033;-73
2022/05/29 03:23:11;;;;;;;20.90;4.87;;;9.70;99.90;;;;;;5037217;28;20037;-73
2022/05/29 03:25:41;;;;;;;19.17;4.80;;;9.70;99.90;;;;;;5043416;28;20037;-73
2022/05/29 03:28:13;;;;;;;20.20;4.90;;;9.60;99.90;;;;;;5035080;28;20108;-73
2022/05/29 03:30:41;;;;;;;18.23;4.10;;;9.60;99.90;;;;;;5035038;28;20045;-73
2022/05/29 03:33:12;;;;;;;15.83;4.97;;;9.60;99.90;;;;;;5042923;28;20625;-73
2022/05/29 03:35:46;;;;;;;20.80;4.70;;;9.60;99.90;;;;;;5051965;28;20037;-73
2022/05/29 03:38:11;;;;;;;20.45;4.40;;;9.70;99.90;;;;;;5048277;28;20075;-73
2022/05/29 03:40:39;;;;;;;16.87;4.43;;;9.70;99.90;;;;;;5035130;28;20542;-73
2022/05/29 03:43:05;;;;;;;20.03;4.70;;;9.70;99.90;;;;;;5036036;28;20173;-73
2022/05/29 03:45:31;;;;;;;15.40;4.13;;;9.80;99.90;;;;;;5053260;28;20055;-74
2022/05/29 03:47:58;;;;;;;19.13;4.00;;;9.80;99.90;;;;;;5034432;28;20123;-74
2022/05/29 03:50:25;;;;;;;16.77;4.00;;;9.80;99.90;;;;;;5052429;28;20044;-73
2022/05/29 03:52:51;;;;;;;18.47;4.43;;;9.80;99.90;;;;;;5053245;28;20045;-73
2022/05/29 03:55:20;;;;;;;18.33;4.67;;;9.90;99.90;;;;;;5017841;28;20561;-73
2022/05/29 03:57:46;;;;;;;15.73;3.97;;;9.90;99.90;;;;;;5042564;28;20352;-73
2022/05/29 04:00:13;;;;;;;20.07;4.00;;;10.00;99.90;;;;;;5027851;28;20077;-73
2022/05/29 04:02:40;;;;;;;12.27;4.00;;;10.00;99.90;;;;;;5036503;28;20471;-73
2022/05/29 04:05:08;;;;;;;14.33;3.77;;;10.00;99.90;;;;;;5017308;28;20099;-73
2022/05/29 04:13:02;;;;;;;13.13;3.42;;;10.00;99.90;;;;;;5033126;28;20057;-73
2022/05/29 04:15:28;;;;;;;16.97;4.40;;;10.00;99.90;;;;;;5052641;28;20048;-73
2022/05/29 04:17:54;;;;;;;14.37;3.47;;;10.10;99.90;;;;;;5042457;28;20045;-72
2022/05/29 04:20:21;;;;;;;12.53;3.13;;;10.10;99.90;;;;;;5051702;28;20046;-73
2022/05/29 04:22:47;;;;;;;17.70;3.50;;;10.10;99.90;;;;;;5049937;28;20045;-73
2022/05/29 04:25:13;;;;;;;12.10;3.13;;;10.10;99.90;;;;;;5052482;28;20107;-72
2022/05/29 04:27:39;;;;;;;13.80;3.53;;;10.20;99.90;;;;;;5033302;28;20068;-73
2022/05/29 04:30:06;;;;;;;14.50;3.20;;;10.20;99.90;;;;;;5041158;28;20503;-73
2022/05/29 04:35:40;;;;;;;13.32;3.40;;;10.30;99.90;;;;;;5002000;28;20136;-73
2022/05/29 04:38:06;;;;;;;12.00;2.97;;;10.30;99.90;;;;;;5013709;28;20053;-73
2022/05/29 04:40:32;;;;;;;15.73;3.20;;;10.30;99.90;;;;;;5023043;28;20048;-73
2022/05/29 04:42:58;;;;;;;13.57;3.67;;;10.30;99.90;;;;;;5052314;28;20041;-73
2022/05/29 04:45:24;;;;;;;10.47;3.13;;;10.40;99.90;;;;;;5049102;28;20080;-72
2022/05/29 04:47:50;;;;;;;12.10;3.80;;;10.40;99.90;;;;;;5049966;28;20421;-74
2022/05/29 04:50:15;;;;;;;15.93;3.37;;;10.40;99.90;;;;;;5051103;28;20047;-72
2022/05/29 04:52:42;;;;;;;12.93;3.10;;;10.40;99.90;;;;;;5051144;28;20051;-73
2022/05/29 04:55:09;;;;;;;10.13;3.23;;;10.40;99.90;;;;;;5052027;28;20056;-72
2022/05/29 04:57:34;;;;;;;9.43;2.90;;;10.50;99.90;;;;;;5032738;28;20560;-72
2022/05/29 05:00:00;;;;;;;15.07;3.40;;;10.40;99.90;;;;;;5050881;28;20081;-72
2022/05/29 05:02:26;;;;;;;11.03;2.83;;;10.40;99.90;;;;;;5050889;28;20410;-73
2022/05/29 05:04:52;;;;;;;13.63;3.20;;;10.50;99.90;;;;;;5033833;28;20136;-73
2022/05/29 05:07:17;;;;;;;12.70;2.90;;;10.50;99.90;;;;;;5051425;28;20420;-73
2022/05/29 05:09:45;;;;;;;15.10;3.03;;;10.50;99.90;;;;;;5048324;28;20127;-73
2022/05/29 05:12:11;;;;;;;17.07;3.37;;;10.60;99.90;;;;;;5051619;28;20068;-72
2022/05/29 05:14:37;;;;;;;11.87;2.93;;;10.60;99.90;;;;;;5048596;28;20392;-73
2022/05/29 05:17:03;;;;;;;16.03;3.10;;;10.60;99.90;;;;;;5025833;28;20074;-72
2022/05/29 05:19:29;;;;;;;12.80;3.03;;;10.70;99.90;;;;;;5033249;28;20107;-72
2022/05/29 05:21:55;;;;;;;10.13;3.07;;;10.70;99.90;;;;;;5050891;28;20029;-73
2022/05/29 05:24:21;;;;;;;14.90;2.97;;;10.70;99.90;;;;;;5051557;28;20502;-73
2022/05/29 05:26:50;;;;;;;14.97;2.93;;;10.70;99.90;;;;;;5032656;28;20387;-73
2022/05/29 05:29:16;;;;;;;16.40;3.73;;;10.70;99.90;;;;;;5034123;28;20045;-73
2022/05/29 05:31:41;;;;;;;8.60;2.17;;;10.70;99.90;;;;;;5051616;28;20576;-73
2022/05/29 05:34:07;;;;;;;15.63;2.47;;;10.70;99.90;;;;;;5038956;28;20080;-72
2022/05/29 05:36:33;;;;;;;16.33;3.03;;;10.70;99.90;;;;;;5039155;28;20411;-73
2022/05/29 05:38:59;;;;;;;12.33;2.70;;;10.70;99.90;;;;;;5041600;28;20044;-73
2022/05/29 05:41:25;;;;;;;12.97;2.67;;;10.70;99.90;;;;;;5049194;28;20037;-72
2022/05/29 05:43:52;;;;;;;15.70;3.33;;;10.80;99.90;;;;;;5030214;28;20515;-73
2022/05/29 05:46:18;;;;;;;13.20;2.23;;;10.80;99.90;;;;;;5031032;28;20049;-73
2022/05/29 05:48:45;;;;;;;12.17;2.80;;;10.90;99.90;;;;;;5044092;28;20132;-73
2022/05/29 05:51:12;;;;;;;16.57;3.23;;;11.00;99.90;;;;;;5033480;28;20499;-72
2022/05/29 05:53:39;;;;;;;12.13;2.50;;;11.10;99.90;;;;;;5051173;28;20410;-72
2022/05/29 05:56:06;;;;;;;12.30;3.10;;;11.20;99.90;;;;;;5033108;28;20125;-73
2022/05/29 05:58:32;;;;;;;14.50;2.63;;;11.30;99.90;;;;;;5044685;28;20083;-72
2022/05/29 06:01:03;;;;;;;16.17;3.03;;;11.30;99.90;;;;;;5030561;28;20083;-73
2022/05/29 06:03:29;;;;;;;9.27;2.90;;;11.40;99.90;;;;;;5051086;28;20143;-72
2022/05/29 06:05:55;;;;;;;13.60;2.77;;;11.50;99.90;;;;;;5043941;28;20110;-72
2022/05/29 06:08:20;;;;;;;12.40;2.90;;;11.50;99.90;;;;;;5049674;28;20047;-73
2022/05/29 06:10:46;;;;;;;16.93;3.23;;;11.50;99.90;;;;;;5032693;28;20045;-73
2022/05/29 06:13:12;;;;;;;14.43;3.33;;;11.50;99.90;;;;;;5043650;28;20503;-71
2022/05/29 06:15:38;;;;;;;14.27;3.27;;;11.50;99.90;;;;;;5033952;28;20078;-72
2022/05/29 06:18:05;;;;;;;17.90;2.73;;;11.50;99.90;;;;;;5024289;28;20041;-73
2022/05/29 06:20:31;;;;;;;12.03;2.57;;;11.50;99.90;;;;;;5031219;28;20442;-73
2022/05/29 06:22:57;;;;;;;16.27;3.07;;;11.50;99.90;;;;;;5048644;28;20051;-73
2022/05/29 06:25:22;;;;;;;15.57;3.43;;;11.40;99.90;;;;;;5030439;28;20053;-74
2022/05/29 06:27:48;;;;;;;14.07;2.90;;;11.40;99.90;;;;;;5048832;28;20041;-73
2022/05/29 06:30:15;;;;;;;10.10;2.33;;;11.40;99.90;;;;;;5030757;28;20110;-74
2022/05/29 06:32:41;;;;;;;20.33;3.07;;;11.40;99.90;;;;;;5050519;28;20067;-74
2022/05/29 06:35:11;;;;;;;14.60;2.33;;;11.30;99.90;;;;;;5044528;28;20507;-72
2022/05/29 06:37:37;;;;;;;14.10;2.77;;;11.40;99.90;;;;;;5042456;28;20409;-73
2022/05/29 06:40:04;;;;;;;9.93;2.13;;;11.40;99.90;;;;;;5030540;28;20053;-73
2022/05/29 06:42:30;;;;;;;14.43;3.30;;;11.40;99.90;;;;;;5027935;28;20415;-73
2022/05/29 06:44:55;;;;;;;13.73;2.77;;;11.30;99.90;;;;;;5049077;28;20053;-73
2022/05/29 06:47:21;;;;;;;15.80;2.53;;;11.30;99.90;;;;;;5012627;28;20037;-72
2022/05/29 06:49:49;;;;;;;14.70;2.87;;;11.30;99.90;;;;;;5028134;28;20047;-72
2022/05/29 06:52:17;;;;;;;18.63;3.70;;;11.20;99.90;;;;;;5048456;28;20601;-73
2022/05/29 06:54:42;;;;;;;12.33;2.83;;;11.20;99.90;;;;;;5031943;28;20525;-73
2022/05/29 06:57:08;;;;;;;15.27;2.97;;;11.30;99.90;;;;;;5049307;28;20037;-72
2022/05/29 07:06:58;;;;;;;14.23;3.33;;;11.40;99.90;;;;;;5048304;28;20126;-73
2022/05/29 07:07:51;;;;;;;15.57;2.83;;;11.60;99.90;;;;;;5049263;28;20045;-72
2022/05/29 07:10:17;;;;;;;17.40;2.87;;;11.70;99.90;;;;;;5029541;28;20057;-72
2022/05/29 07:12:43;;;;;;;24.60;3.03;;;11.70;99.90;;;;;;5025147;28;20099;-73
2022/05/29 07:15:10;;;;;;;14.53;2.73;;;11.70;99.90;;;;;;5049024;28;20106;-73
2022/05/29 07:17:35;;;;;;;14.73;3.13;;;11.70;99.90;;;;;;5034123;28;20067;-75
2022/05/29 07:20:02;;;;;;;17.47;3.07;;;11.60;99.90;;;;;;5019787;28;20048;-76
2022/05/29 07:22:32;;;;;;;15.17;3.20;;;11.60;99.90;;;;;;5017563;28;20057;-76
2022/05/29 07:24:59;;;;;;;16.93;3.63;;;11.50;99.90;;;;;;5026618;28;20045;-75
2022/05/29 07:27:25;;;;;;;19.20;3.33;;;11.60;99.90;;;;;;5029223;28;20052;-75
2022/05/29 07:29:52;;;;;;;19.30;3.07;;;11.60;99.90;;;;;;5048754;28;20052;-76
2022/05/29 07:32:18;;;;;;;16.27;3.63;;;11.60;99.90;;;;;;5031731;28;20078;-75
2022/05/29 07:34:45;;;;;;;19.30;3.40;;;11.70;99.90;;;;;;5051717;28;20045;-75
2022/05/29 07:37:14;;;;;;;19.27;3.20;;;11.80;99.90;;;;;;5060830;28;20042;-76
2022/05/29 07:39:42;;;;;;;19.20;3.20;;;11.80;99.90;;;;;;5017623;28;20046;-76
2022/05/29 07:44:55;;;;;;;19.40;3.43;;;12.10;99.90;;;;;;5050145;28;20069;-77
2022/05/29 07:47:21;;;;;;;15.47;3.20;;;12.30;99.90;;;;;;5049313;28;20506;-77
2022/05/29 07:49:48;;;;;;;17.20;3.40;;;12.40;99.90;;;;;;5041522;28;20138;-76
2022/05/29 07:52:13;;;;;;;17.73;3.20;;;12.50;99.90;;;;;;5033486;28;20045;-75
2022/05/29 07:54:39;;;;;;;10.87;2.30;;;12.60;99.90;;;;;;5037922;28;20043;-76
2022/05/29 07:57:05;;;;;;;16.47;3.30;;;12.60;99.90;;;;;;5034228;28;20049;-77
2022/05/29 07:59:32;;;;;;;15.27;3.00;;;12.70;99.90;;;;;;5038630;28;20046;-75
2022/05/29 08:01:58;;;;;;;12.10;2.90;;;12.70;99.90;;;;;;5034020;28;20045;-77
2022/05/29 08:04:24;;;;;;;18.47;3.27;;;12.70;99.90;;;;;;5036737;28;20049;-76
2022/05/29 08:06:49;;;;;;;12.60;2.80;;;12.70;99.90;;;;;;5053248;28;20421;-77
2022/05/29 08:09:15;;;;;;;13.43;2.43;;;12.70;99.90;;;;;;5044370;28;20075;-80
2022/05/29 08:11:41;;;;;;;12.73;2.50;;;12.70;99.90;;;;;;5051882;28;20079;-76
2022/05/29 08:14:07;;;;;;;16.57;2.30;;;12.70;99.90;;;;;;5048342;28;20624;-75
2022/05/29 08:16:36;;;;;;;9.13;1.80;;;12.60;99.90;;;;;;5053605;28;20225;-75
2022/05/29 08:19:02;;;;;;;11.53;2.17;;;12.60;99.90;;;;;;5016934;28;20056;-77
2022/05/29 08:21:27;;;;;;;10.97;2.07;;;12.50;99.90;;;;;;5027349;28;20491;-76
2022/05/29 08:32:08;;;;;;;7.82;1.80;;;12.30;99.90;;;;;;5035014;28;20037;-76
2022/05/29 08:34:33;;;;;;;9.57;1.80;;;12.20;99.90;;;;;;5052664;28;20048;-77
2022/05/29 08:36:59;;;;;;;10.17;1.60;;;12.10;99.90;;;;;;5042675;28;20427;-75
2022/05/29 08:39:25;;;;;;;12.20;1.90;;;12.10;99.90;;;;;;5032104;28;20057;-77
2022/05/29 08:41:53;;;;;;;13.73;1.70;;;12.10;99.90;;;;;;5052271;28;20495;-77
2022/05/29 08:44:24;;;;;;;9.27;2.00;;;12.10;99.90;;;;;;5049034;28;20503;-79
2022/05/29 08:46:52;;;;;;;8.07;1.40;;;12.00;99.90;;;;;;5036849;28;20344;-75
2022/05/29 08:49:24;;;;;;;11.40;1.80;;;12.10;99.90;;;;;;5038964;28;20057;-75
2022/05/29 08:52:21;;;;;;;13.17;2.10;;;12.10;99.90;;;;;;5036016;28;20045;-76
2022/05/29 08:54:51;;;;;;;11.97;2.27;;;12.10;99.90;;;;;;5008933;28;20068;-78
2022/05/29 08:57:50;;;;;;;9.00;2.30;;;12.20;99.90;;;;;;5053018;28;20052;-77
2022/05/29 09:00:23;;;;;;;11.93;2.90;;;12.30;99.90;;;;;;5021101;28;20110;-77
2022/05/29 09:03:01;;;;;;;9.93;2.10;;;12.30;99.90;;;;;;5052516;28;20179;-76
2022/05/29 09:05:34;;;;;;;8.00;1.80;;;12.40;99.90;;;;;;5050796;28;20086;-78
2022/05/29 09:08:04;;;;;;;10.37;1.53;;;12.40;99.90;;;;;;5067081;28;20052;-75
2022/05/29 09:10:36;;;;;;;11.27;1.90;;;12.40;99.90;;;;;;5051443;28;20131;-76
2022/05/29 09:13:05;;;;;;;9.33;1.77;;;12.50;99.90;;;;;;5051500;28;20036;-75
2022/05/29 09:15:35;;;;;;;6.87;1.77;;;12.40;99.90;;;;;;5018151;28;20047;-76
2022/05/29 09:18:11;;;;;;;9.27;1.90;;;12.30;99.90;;;;;;5031260;28;20411;-75
2022/05/29 09:20:45;;;;;;;9.20;1.80;;;12.30;99.90;;;;;;5050546;28;20076;-76
2022/05/29 09:23:17;;;;;;;7.65;1.60;;;12.20;99.90;;;;;;5029300;28;20041;-77
2022/05/29 09:25:44;;;;;;;7.90;1.80;;;12.10;99.90;;;;;;5069137;28;20079;-77
2022/05/29 09:28:18;;;;;;;8.90;2.00;;;12.20;99.90;;;;;;5025523;28;20049;-77
2022/05/29 09:30:45;;;;;;;8.83;1.57;;;12.20;99.90;;;;;;5028270;28;20438;-76
2022/05/29 09:33:14;;;;;;;12.23;2.03;;;12.30;99.90;;;;;;5048881;28;20060;-76
2022/05/29 09:35:45;;;;;;;12.30;1.93;;;12.40;99.90;;;;;;5014712;28;20046;-77
2022/05/29 09:38:23;;;;;;;9.73;1.83;;;12.60;99.90;;;;;;5016854;28;20064;-76
2022/05/29 09:40:56;;;;;;;10.03;2.00;;;12.70;99.90;;;;;;5025787;28;20037;-76
2022/05/29 09:43:23;;;;;;;5.95;1.70;;;12.80;99.90;;;;;;5046332;28;20045;-76
2022/05/29 09:45:49;;;;;;;11.50;1.77;;;13.00;99.90;;;;;;5018221;28;20049;-76
2022/05/29 09:51:13;;;;;;;10.40;1.53;;;13.20;99.90;;;;;;5065218;28;20053;-75
2022/05/29 09:53:45;;;;;;;5.77;1.43;;;13.30;99.90;;;;;;5039642;28;20454;-77
2022/05/29 09:56:12;;;;;;;9.47;1.50;;;13.20;99.90;;;;;;5034075;28;20053;-78
2022/05/29 09:58:44;;;;;;;9.50;2.60;;;13.10;99.90;;;;;;5064503;28;20117;-76
2022/05/29 10:01:11;;;;;;;8.60;1.83;;;12.90;99.90;;;;;;5050217;28;20047;-75
2022/05/29 10:03:48;;;;;;;8.33;1.70;;;12.80;99.90;;;;;;5017044;28;20060;-77
2022/05/29 10:06:23;;;;;;;12.83;1.73;;;12.80;99.90;;;;;;5048340;28;20041;-75
2022/05/29 10:08:52;;;;;;;9.30;1.87;;;12.90;99.90;;;;;;5033932;28;20056;-75
2022/05/29 10:11:21;;;;;;;7.67;1.63;;;13.00;99.90;;;;;;5026299;28;20072;-75
2022/05/29 10:13:47;;;;;;;5.40;1.33;;;13.20;99.90;;;;;;5049170;28;20127;-75
2022/05/29 10:16:29;;;;;;;8.77;2.10;;;13.40;99.90;;;;;;5028467;28;20045;-76
2022/05/29 10:18:55;;;;;;;7.87;1.73;;;13.50;99.90;;;;;;5031850;28;20069;-80
2022/05/29 10:21:27;;;;;;;11.43;2.10;;;13.50;99.90;;;;;;5049079;28;20493;-75
2022/05/29 10:23:58;;;;;;;10.67;1.73;;;13.50;99.90;;;;;;5051154;28;20139;-75
2022/05/29 10:26:32;;;;;;;8.60;1.43;;;13.40;99.90;;;;;;5017547;28;20052;-76
2022/05/29 10:28:58;;;;;;;;;;;13.20;99.90;;;;;;5029025;28;20037;-79
2022/05/29 10:31:28;;;;;;;9.27;1.50;;;13.00;99.90;;;;;;5050179;28;19928;-75
2022/05/29 10:34:05;;;;;;;11.70;2.00;;;12.80;99.90;;;;;;5062980;28;20063;-75
2022/05/29 10:36:33;;;;;;;9.07;1.53;;;12.70;99.90;;;;;;5056721;28;20044;-77
2022/05/29 10:39:07;;;;;;;9.07;1.50;;;12.60;99.90;;;;;;5032948;28;20102;-81
2022/05/29 10:41:36;;;;;;;7.05;1.55;;;12.60;99.90;;;;;;5037980;28;20043;-76
2022/05/29 10:44:02;;;;;;;11.83;1.90;;;12.60;99.90;;;;;;5050914;28;20049;-79
2022/05/29 10:46:40;;;;;;;7.13;1.77;;;12.60;99.90;;;;;;5031644;28;20043;-76
2022/05/29 10:49:30;;;;;;;10.67;1.83;;;12.80;99.90;;;;;;5014045;28;20080;-77
2022/05/29 10:52:21;;;;;;;9.27;1.70;;;12.90;99.90;;;;;;5027504;28;20515;-78
2022/05/29 10:55:22;;;;;;;8.17;1.40;;;13.10;99.90;;;;;;5050929;28;20060;-75
2022/05/29 10:58:24;;;;;;;7.43;1.70;;;13.60;99.90;;;;;;5015878;28;20056;-78
2022/05/29 11:01:00;;;;;;;9.27;1.50;;;14.20;99.90;;;;;;5018975;28;20087;-79
2022/05/29 11:03:56;;;;;;;9.03;1.80;;;14.60;99.90;;;;;;5041434;28;20132;-77
2022/05/29 11:06:59;;;;;;;8.33;1.93;;;14.90;99.90;;;;;;5011537;28;20041;-74
2022/05/29 11:10:09;;;;;;;8.57;1.60;;;15.10;99.90;;;;;;5021820;28;20096;-76
2022/05/29 11:12:45;;;;;;;6.67;1.70;;;14.90;99.90;;;;;;5035454;28;20045;-78
2022/05/29 11:15:21;;;;;;;6.87;1.40;;;14.60;99.90;;;;;;5034362;28;20049;-75
2022/05/29 11:18:00;;;;;;;10.87;1.73;;;14.20;99.90;;;;;;5034605;28;20124;-76
2022/05/29 11:20:52;;;;;;;6.33;1.33;;;13.90;99.90;;;;;;5021533;28;20041;-75
2022/05/29 11:23:43;;;;;;;11.23;2.10;;;13.60;99.90;;;;;;5054520;28;20056;-75
2022/05/29 11:26:18;;;;;;;9.40;2.00;;;13.30;99.90;;;;;;5027924;28;20407;-75
2022/05/29 11:29:04;;;;;;;11.30;1.77;;;13.10;99.90;;;;;;5054432;28;20049;-76
2022/05/29 11:31:40;;;;;;;10.67;1.83;;;13.00;99.90;;;;;;5039049;28;20124;-76
2022/05/29 11:34:29;;;;;;;9.10;1.57;;;13.00;99.90;;;;;;5037023;28;20052;-76
2022/05/29 11:37:11;;;;;;;5.77;1.70;;;13.00;99.90;;;;;;5021348;28;20073;-76
2022/05/29 11:39:40;;;;;;;8.03;1.67;;;13.00;99.90;;;;;;5025972;28;20502;-76
2022/05/29 11:42:25;;;;;;;8.43;1.50;;;13.20;99.90;;;;;;5046355;28;20048;-75
2022/05/29 11:44:57;;;;;;;5.13;1.10;;;13.40;99.90;;;;;;5034772;28;20045;-78
2022/05/29 11:53:15;;;;;;;6.90;1.57;;;14.60;99.90;;;;;;5039983;28;20068;-76
2022/05/29 11:55:43;;;;;;;9.57;1.57;;;14.80;99.90;;;;;;5036146;28;20044;-75
2022/05/29 11:58:16;;;;;;;7.50;1.20;;;14.90;99.90;;;;;;5055185;28;20045;-75
2022/05/29 12:00:49;;;;;;;7.17;1.47;;;14.70;99.90;;;;;;5052446;28;20067;-74
2022/05/29 12:03:33;;;;;;;10.20;1.90;;;14.50;99.90;;;;;;5045988;28;20399;-75
2022/05/29 12:06:07;;;;;;;7.18;1.80;;;14.20;99.90;;;;;;5046308;28;20041;-75
2022/05/29 12:08:42;;;;;;;7.77;1.80;;;13.80;99.90;;;;;;5027456;28;20626;-75
2022/05/29 12:11:25;;;;;;;9.80;1.43;;;13.50;99.90;;;;;;5050541;28;20542;-74
2022/05/29 12:13:58;;;;;;;6.57;1.40;;;13.20;99.90;;;;;;5050396;28;20082;-76
2022/05/29 12:16:28;;;;;;;10.73;2.13;;;13.00;99.90;;;;;;5037098;28;20564;-75
2022/05/29 12:18:57;;;;;;;6.73;1.30;;;12.80;99.90;;;;;;5043778;28;20072;-75
2022/05/29 12:21:30;;;;;;;6.80;1.50;;;12.70;99.90;;;;;;5022063;28;20063;-77
2022/05/29 12:23:58;;;;;;;9.20;1.52;;;12.70;99.90;;;;;;5045938;28;20131;-76
2022/05/29 12:26:28;;;;;;;5.77;1.40;;;12.70;99.90;;;;;;5026387;28;20454;-76
2022/05/29 12:29:02;;;;;;;9.17;1.33;;;12.90;99.90;;;;;;5037138;28;20067;-76
2022/05/29 12:31:31;;;;;;;;;;;13.00;99.90;;;;;;5048292;28;20422;-75
2022/05/29 12:33:57;;;;;;;7.70;1.63;;;13.20;99.90;;;;;;5033656;28;19960;-76
2022/05/29 12:36:44;;;;;;;9.40;1.77;;;13.40;99.90;;;;;;5051698;28;20479;-78
2022/05/29 12:39:23;;;;;;;9.43;1.80;;;13.60;99.90;;;;;;5050367;28;20045;-75
2022/05/29 12:42:06;;;;;;;9.80;1.50;;;13.90;99.90;;;;;;5046245;28;20073;-78
2022/05/29 12:44:52;;;;;;;10.60;1.97;;;14.10;99.90;;;;;;5049859;28;20041;-75
2022/05/29 12:47:53;;;;;;;8.17;2.00;;;14.30;99.90;;;;;;5042924;28;20059;-76
2022/05/29 12:50:28;;;;;;;12.43;1.87;;;14.30;99.90;;;;;;4971461;28;20078;-77
2022/05/29 12:53:28;;;;;;;9.70;1.60;;;14.40;99.90;;;;;;5067236;28;20079;-79
2022/05/29 12:56:11;;;;;;;10.83;1.97;;;14.20;99.90;;;;;;5033567;28;20075;-77
2022/05/29 12:59:03;;;;;;;9.43;1.70;;;14.10;99.90;;;;;;5031226;28;20103;-77
2022/05/29 13:01:47;;;;;;;9.80;1.80;;;14.00;99.90;;;;;;5046583;28;20099;-77
2022/05/29 13:04:38;;;;;;;10.73;1.65;;;13.80;99.90;;;;;;5052140;28;20049;-79
2022/05/29 13:07:24;;;;;;;10.07;1.90;;;13.70;99.90;;;;;;5031095;28;20078;-79
2022/05/29 13:10:05;;;;;;;9.03;1.93;;;13.70;99.90;;;;;;5032297;28;20062;-78
2022/05/29 13:12:34;;;;;;;10.60;2.23;;;13.60;99.90;;;;;;5065476;28;20072;-77
2022/05/29 13:15:04;;;;;;;7.33;1.80;;;13.50;99.90;;;;;;5049505;28;20045;-78
2022/05/29 13:17:34;;;;;;;11.47;1.90;;;13.50;99.90;;;;;;5048236;28;20041;-78
2022/05/29 13:20:05;;;;;;;9.03;2.30;;;13.40;99.90;;;;;;5045206;28;20345;-76
2022/05/29 13:22:49;;;;;;;12.13;2.00;;;13.20;99.90;;;;;;5048348;28;20344;-79
2022/05/29 13:25:17;;;;;;;13.38;2.58;;;13.10;99.90;;;;;;5029775;28;20282;-77
2022/05/29 13:27:43;;;;;;;9.70;2.00;;;13.00;99.90;;;;;;5061911;28;20608;-80
2022/05/29 13:30:53;;;;;;;12.53;2.10;;;12.90;99.90;;;;;;5031976;28;20045;-79
2022/05/29 13:33:46;;;;;;;11.27;2.10;;;13.00;99.90;;;;;;5022069;28;20049;-78
2022/05/29 13:37:02;;;;;;;9.60;2.07;;;13.00;99.90;;;;;;5022449;28;20056;-78
2022/05/29 13:39:36;;;;;;;9.60;1.80;;;13.30;99.90;;;;;;5039393;28;20053;-78